Time;durP1;ratioP1;P1;durP2;ratioP2;P2;SDS_P1;SDS_P2;PMS_P1;PMS_P2;Temp;Humidity;BMP_temperature;BMP_pressure;BME280_temperature;BME280_humidity;BME280_pressure;Samples;Min_cycle;Max_cycle;Signal;HPM_P1;HPM_P2
2023/02/07 00:01:29;;;;;;;17.83;5.25;;;;;;;-3.33;100.00;104145.34;5113068;28;20039;-75
2023/02/07 00:03:57;;;;;;;13.90;5.57;;;;;;;-3.32;100.00;104141.03;5113187;28;20040;-75
2023/02/07 00:06:28;;;;;;;13.68;5.32;;;;;;;-3.34;100.00;104134.91;5113392;28;20076;-76
2023/02/07 00:08:54;;;;;;;15.75;5.57;;;;;;;-3.37;100.00;104134.00;5113921;28;20030;-75
2023/02/07 00:11:22;;;;;;;13.90;5.07;;;;;;;-3.39;100.00;104133.09;5113281;28;20113;-76
2023/02/07 00:13:50;;;;;;;13.18;5.53;;;;;;;-3.42;100.00;104125.22;5113275;28;20069;-76
2023/02/07 00:16:15;;;;;;;20.27;5.78;;;;;;;-3.43;100.00;104123.47;5113475;28;20031;-76
2023/02/07 00:18:41;;;;;;;14.30;5.65;;;;;;;-3.45;100.00;104124.25;5113253;28;20032;-76
2023/02/07 00:21:09;;;;;;;16.00;5.38;;;;;;;-3.46;100.00;104125.09;5113288;28;20444;-76
2023/02/07 00:23:35;;;;;;;15.00;5.72;;;;;;;-3.49;100.00;104131.16;5113305;28;20028;-76
2023/02/07 00:26:03;;;;;;;12.07;5.63;;;;;;;-3.51;100.00;104117.19;5113282;28;20349;-76
2023/02/07 00:28:29;;;;;;;16.98;5.35;;;;;;;-3.55;100.00;104111.06;5116289;28;20037;-76
2023/02/07 00:31:06;;;;;;;11.18;5.85;;;;;;;-3.57;100.00;104110.16;5116528;28;20114;-75
2023/02/07 00:33:33;;;;;;;15.52;5.25;;;;;;;-3.57;100.00;104115.38;5117036;28;20031;-76
2023/02/07 00:36:00;;;;;;;14.63;5.53;;;;;;;-3.57;100.00;104122.28;5116463;28;20536;-76
2023/02/07 00:38:26;;;;;;;14.23;6.07;;;;;;;-3.60;100.00;104119.63;5116657;28;20023;-76
2023/02/07 00:40:51;;;;;;;11.57;5.25;;;;;;;-3.62;100.00;104114.38;5116889;28;20032;-76
2023/02/07 00:43:16;;;;;;;11.05;5.78;;;;;;;-3.63;100.00;104109.13;5116739;28;20036;-76
2023/02/07 00:45:42;;;;;;;14.50;5.88;;;;;;;-3.66;100.00;104109.94;5116815;28;20035;-76
2023/02/07 00:48:07;;;;;;;23.60;6.28;;;;;;;-3.67;100.00;104112.50;5116876;28;20110;-75
2023/02/07 00:50:33;;;;;;;14.93;6.03;;;;;;;-3.69;100.00;104119.41;5115398;28;20143;-75
2023/02/07 00:52:58;;;;;;;15.70;5.60;;;;;;;-3.71;100.00;104119.38;5117089;28;20027;-75
2023/02/07 00:55:23;;;;;;;8.38;5.18;;;;;;;-3.72;100.00;104115.03;5115465;28;20036;-75
2023/02/07 00:57:49;;;;;;;11.07;5.43;;;;;;;-3.74;100.00;104104.56;5116780;28;20475;-75
2023/02/07 01:00:14;;;;;;;18.77;5.65;;;;;;;-3.76;100.00;104106.28;5117435;28;20121;-75
2023/02/07 01:02:40;;;;;;;14.75;5.55;;;;;;;-3.76;100.00;104100.22;5115698;28;20139;-75
2023/02/07 01:05:06;;;;;;;17.42;5.68;;;;;;;-3.78;100.00;104097.53;5116322;28;20032;-75
2023/02/07 01:07:32;;;;;;;24.80;6.68;;;;;;;-3.78;100.00;104094.06;5116397;28;20486;-77
2023/02/07 01:09:57;;;;;;;19.40;5.60;;;;;;;-3.77;100.00;104096.69;5117187;28;20429;-76
2023/02/07 01:12:23;;;;;;;18.20;5.80;;;;;;;-3.78;100.00;104102.75;5116774;28;20028;-77
2023/02/07 01:14:48;;;;;;;18.88;5.38;;;;;;;-3.78;100.00;104096.66;5116927;28;20111;-77
2023/02/07 01:17:13;;;;;;;32.42;8.00;;;;;;;-3.79;100.00;104105.31;5116421;28;20092;-77
2023/02/07 01:19:39;;;;;;;19.27;5.82;;;;;;;-3.81;100.00;104105.28;5115361;28;20452;-77
2023/02/07 01:22:04;;;;;;;25.83;7.05;;;;;;;-3.80;100.00;104114.00;5116204;28;20024;-77
2023/02/07 01:24:30;;;;;;;24.17;7.18;;;;;;;-3.79;100.00;104105.31;5114795;28;20031;-76
2023/02/07 01:26:56;;;;;;;25.17;6.53;;;;;;;-3.81;100.00;104105.28;5115845;28;20387;-76
2023/02/07 01:29:21;;;;;;;21.35;7.25;;;;;;;-3.81;100.00;104112.22;5116157;28;20452;-76
2023/02/07 01:31:47;;;;;;;33.60;8.98;;;;;;;-3.82;100.00;104113.94;5115704;28;20115;-77
2023/02/07 01:34:13;;;;;;;17.42;6.63;;;;;;;-3.82;100.00;104110.44;5115333;28;20369;-76
2023/02/07 01:36:39;;;;;;;14.50;6.70;;;;;;;-3.84;100.00;104115.63;5114624;28;20413;-76
2023/02/07 01:39:04;;;;;;;25.65;6.80;;;;;;;-3.83;100.00;104109.59;5115055;28;20081;-75
2023/02/07 01:41:29;;;;;;;17.33;6.55;;;;;;;-3.83;100.00;104111.31;5115540;28;20464;-77
2023/02/07 01:44:07;;;;;;;21.80;6.57;;;;;;;-3.81;100.00;104117.44;5116397;28;20054;-77
2023/02/07 01:46:34;;;;;;;27.40;7.60;;;;;;;-3.82;100.00;104118.25;5115563;28;20035;-78
2023/02/07 01:49:11;;;;;;;24.80;6.78;;;;;;;-3.81;100.00;104118.28;5115483;28;20039;-77
2023/02/07 01:51:44;;;;;;;22.48;6.88;;;;;;;-3.79;100.00;104120.94;5115911;28;20046;-76
2023/02/07 01:54:11;;;;;;;25.20;7.88;;;;;;;-3.76;100.00;104124.50;5116217;28;20084;-76
2023/02/07 01:56:41;;;;;;;21.52;7.72;;;;;;;-3.73;100.00;104118.50;5114695;28;20512;-76
2023/02/07 01:59:07;;;;;;;21.42;7.55;;;;;;;-3.69;100.00;104125.50;5115151;28;20039;-76
2023/02/07 02:01:33;;;;;;;19.48;6.75;;;;;;;-3.65;100.00;104126.47;5114981;28;20035;-75
2023/02/07 02:03:58;;;;;;;18.45;7.72;;;;;;;-3.63;100.00;104128.22;5114964;28;20368;-75
2023/02/07 02:06:28;;;;;;;19.40;7.20;;;;;;;-3.59;100.00;104123.97;5114725;28;20039;-76
2023/02/07 02:08:56;;;;;;;30.65;8.18;;;;;;;-3.52;100.00;104130.19;5115131;28;20482;-76
2023/02/07 02:11:27;;;;;;;16.08;6.93;;;;;;;-3.49;100.00;104128.53;5114607;28;20070;-76
2023/02/07 02:14:15;;;;;;;13.38;7.30;;;;;;;-3.46;100.00;104131.22;5113669;28;20152;-76
2023/02/07 02:16:43;;;;;;;11.43;6.35;;;;;;;-3.43;100.00;104125.19;5115168;28;20031;-76
2023/02/07 02:19:42;;;;;;;9.68;7.07;;;;;;;-3.42;100.00;104127.84;5113592;28;20028;-75
2023/02/07 02:22:31;;;;;;;11.05;6.70;;;;;;;-3.41;100.00;104124.34;5114882;28;20034;-75
2023/02/07 02:25:14;;;;;;;11.07;6.55;;;;;;;-3.42;100.00;104130.44;5107033;28;20054;-76
2023/02/07 02:27:49;;;;;;;10.60;7.35;;;;;;;-3.42;100.00;104119.13;5114589;28;20028;-75
2023/02/07 02:30:33;;;;;;;9.05;6.57;;;;;;;-3.42;100.00;104114.81;5115059;28;20099;-75
2023/02/07 02:33:26;;;;;;;9.15;6.72;;;;;;;-3.43;100.00;104120.84;5114928;28;20460;-75
2023/02/07 02:35:57;;;;;;;11.05;7.68;;;;;;;-3.42;100.00;104111.31;5115048;28;20042;-75
2023/02/07 02:38:34;;;;;;;9.88;8.10;;;;;;;-3.41;100.00;104126.09;5114732;28;20057;-75
2023/02/07 02:41:05;;;;;;;8.13;6.78;;;;;;;-3.44;100.00;104123.44;5114172;28;20027;-75
2023/02/07 02:43:45;;;;;;;8.90;6.82;;;;;;;-3.49;100.00;104122.44;5114295;28;20035;-75
2023/02/07 02:46:26;;;;;;;14.40;7.82;;;;;;;-3.53;100.00;104120.63;5114096;28;20540;-76
2023/02/07 02:48:53;;;;;;;10.70;7.78;;;;;;;-3.51;100.00;104122.41;5114895;28;20031;-75
2023/02/07 02:51:19;;;;;;;10.30;7.82;;;;;;;-3.52;100.00;104118.06;5112030;28;20459;-75
2023/02/07 02:53:56;;;;;;;10.50;8.38;;;;;;;-3.53;100.00;104120.63;5114081;28;20038;-75
2023/02/07 02:56:41;;;;;;;11.40;7.90;;;;;;;-3.55;100.00;104116.28;5114186;28;20398;-74
2023/02/07 02:59:22;;;;;;;11.20;8.45;;;;;;;-3.53;100.00;104105.00;5114359;28;20108;-75
2023/02/07 03:02:01;;;;;;;9.77;7.47;;;;;;;-3.57;100.00;104106.66;5114010;28;20068;-75
2023/02/07 03:04:35;;;;;;;9.52;7.68;;;;;;;-3.60;100.00;104091.88;5112860;28;20031;-75
2023/02/07 03:07:40;;;;;;;11.45;7.80;;;;;;;-3.62;100.00;104092.69;5113700;28;20028;-75
2023/02/07 03:10:08;;;;;;;8.55;7.40;;;;;;;-3.62;100.00;104090.94;5114603;28;20035;-76
2023/02/07 03:12:59;;;;;;;24.00;10.70;;;;;;;-3.59;100.00;104088.41;5113077;28;20023;-77
2023/02/07 03:15:27;;;;;;;36.63;10.85;;;;;;;-3.52;100.00;104088.53;5114481;28;20031;-76
2023/02/07 03:18:04;;;;;;;14.40;10.20;;;;;;;-3.49;100.00;104080.78;5113858;28;20023;-76
2023/02/07 03:20:35;;;;;;;12.90;10.32;;;;;;;-3.51;100.00;104082.47;5113067;28;20065;-76
2023/02/07 03:23:03;;;;;;;10.15;8.70;;;;;;;-3.58;100.00;104082.38;5114428;28;20019;-76
2023/02/07 03:25:30;;;;;;;11.02;8.70;;;;;;;-3.63;100.00;104085.72;5114199;28;20107;-76
2023/02/07 03:27:56;;;;;;;13.70;10.27;;;;;;;-3.68;100.00;104093.44;5113733;28;20028;-76
2023/02/07 03:30:27;;;;;;;16.02;10.85;;;;;;;-3.73;100.00;104090.72;5114285;28;20032;-76
2023/02/07 03:32:57;;;;;;;30.48;12.38;;;;;;;-3.78;100.00;104081.06;5113601;28;20036;-75
2023/02/07 03:35:31;;;;;;;13.27;9.93;;;;;;;-3.79;100.00;104087.09;5113981;28;20026;-76
2023/02/07 03:37:59;;;;;;;14.60;9.73;;;;;;;-3.78;100.00;104088.88;5114384;28;20027;-76
2023/02/07 03:40:28;;;;;;;11.82;8.75;;;;;;;-3.81;100.00;104088.81;5114366;28;20104;-75
2023/02/07 03:43:04;;;;;;;12.18;9.25;;;;;;;-3.84;100.00;104087.00;5114271;28;20038;-76
2023/02/07 03:45:30;;;;;;;12.95;9.85;;;;;;;-3.84;100.00;104081.78;5113751;28;20501;-76
2023/02/07 03:47:55;;;;;;;16.17;11.95;;;;;;;-3.80;100.00;104081.03;5114679;28;20023;-75
2023/02/07 03:50:21;;;;;;;17.83;11.18;;;;;;;-3.76;100.00;104082.00;5116000;28;20112;-75
2023/02/07 03:52:46;;;;;;;13.65;10.60;;;;;;;-3.75;100.00;104083.72;5116393;28;20392;-76
2023/02/07 03:55:12;;;;;;;15.68;11.82;;;;;;;-3.68;100.00;104092.56;5114178;28;20042;-76
2023/02/07 03:57:38;;;;;;;16.88;11.00;;;;;;;-3.63;100.00;104102.19;5113455;28;20036;-75
2023/02/07 04:00:04;;;;;;;14.70;11.73;;;;;;;-3.59;100.00;104097.94;5113466;28;20390;-75
2023/02/07 04:02:30;;;;;;;16.27;12.07;;;;;;;-3.62;100.00;104085.75;5116507;28;20483;-75
2023/02/07 04:04:55;;;;;;;14.75;10.18;;;;;;;-3.67;100.00;104089.09;5117517;27;20060;-75
2023/02/07 04:07:20;;;;;;;11.93;9.13;;;;;;;-3.73;100.00;104095.06;5117451;28;20096;-75
2023/02/07 04:09:46;;;;;;;13.18;9.55;;;;;;;-3.77;100.00;104090.63;5118006;28;20050;-75
2023/02/07 04:12:11;;;;;;;15.25;9.90;;;;;;;-3.81;100.00;104094.00;5117436;28;20093;-76
2023/02/07 04:14:37;;;;;;;12.32;8.60;;;;;;;-3.85;100.00;104087.88;5117093;28;20059;-75
2023/02/07 04:17:02;;;;;;;10.88;8.48;;;;;;;-3.90;100.00;104089.47;5117010;28;20043;-75
2023/02/07 04:19:27;;;;;;;11.32;8.70;;;;;;;-3.95;100.00;104080.69;5115597;28;20577;-75
2023/02/07 04:21:53;;;;;;;12.35;8.82;;;;;;;-3.99;100.00;104084.94;5116974;28;20036;-75
2023/02/07 04:24:18;;;;;;;14.57;9.45;;;;;;;-4.01;100.00;104094.44;5117217;28;20023;-75
2023/02/07 04:26:43;;;;;;;13.45;9.85;;;;;;;-4.05;100.00;104084.81;5116938;28;20027;-75
2023/02/07 04:29:09;;;;;;;15.57;9.07;;;;;;;-4.08;100.00;104082.13;5117263;28;20032;-75
2023/02/07 04:31:36;;;;;;;14.95;8.85;;;;;;;-4.14;100.00;104090.66;5117374;28;20198;-75
2023/02/07 04:34:02;;;;;;;13.45;9.50;;;;;;;-4.15;100.00;104095.84;5098526;28;20027;-75
2023/02/07 04:36:28;;;;;;;13.13;9.35;;;;;;;-4.18;100.00;104094.06;5116937;28;20038;-75
2023/02/07 04:38:54;;;;;;;15.40;9.68;;;;;;;-4.21;100.00;104090.50;5117070;28;20445;-75
2023/02/07 04:41:19;;;;;;;15.73;9.02;;;;;;;-4.27;100.00;104091.22;5116581;28;20028;-75
2023/02/07 04:43:45;;;;;;;20.83;10.27;;;;;;;-4.29;100.00;104087.72;5117588;28;20353;-76
2023/02/07 04:46:10;;;;;;;16.65;10.43;;;;;;;-4.32;100.00;104092.84;5116710;27;20032;-76
2023/02/07 04:48:39;;;;;;;15.50;9.55;;;;;;;-4.34;100.00;104098.00;5116344;28;20457;-75
2023/02/07 04:51:05;;;;;;;16.60;9.88;;;;;;;-4.39;100.00;104089.22;5116309;28;20498;-75
2023/02/07 04:53:31;;;;;;;13.85;9.43;;;;;;;-4.42;100.00;104086.53;5116465;28;20036;-75
2023/02/07 04:55:57;;;;;;;14.32;9.30;;;;;;;-4.46;100.00;104084.72;5115322;28;20444;-75
2023/02/07 04:58:23;;;;;;;13.18;9.13;;;;;;;-4.48;100.00;104086.38;5115233;28;20020;-75
2023/02/07 05:00:48;;;;;;;14.57;9.43;;;;;;;-4.51;100.00;104079.41;5116449;28;20080;-75
2023/02/07 05:03:14;;;;;;;14.07;8.88;;;;;;;-4.53;100.00;104080.22;5116693;28;20052;-75
2023/02/07 05:05:41;;;;;;;13.95;8.45;;;;;;;-4.55;100.00;104081.88;5116180;28;20108;-75
2023/02/07 05:08:07;;;;;;;14.75;8.43;;;;;;;-4.57;100.00;104076.63;5116613;28;20118;-75
2023/02/07 05:10:32;;;;;;;12.88;8.90;;;;;;;-4.58;100.00;104074.00;5116150;28;20063;-75
2023/02/07 05:12:58;;;;;;;12.45;8.73;;;;;;;-4.59;100.00;104082.66;5115489;28;20106;-76
2023/02/07 05:15:23;;;;;;;13.10;8.30;;;;;;;-4.64;100.00;104083.41;5116786;28;20452;-75
2023/02/07 05:17:51;;;;;;;14.50;8.50;;;;;;;-4.68;100.00;104083.31;5116227;28;20032;-75
2023/02/07 05:20:16;;;;;;;15.32;11.07;;;;;;;-4.72;100.00;104077.13;5117020;28;20032;-75
2023/02/07 05:22:42;;;;;;;18.63;11.23;;;;;;;-4.76;100.00;104077.03;5116462;28;20030;-76
2023/02/07 05:25:07;;;;;;;17.77;12.65;;;;;;;-4.79;100.00;104081.31;5117265;28;20463;-75
2023/02/07 05:27:33;;;;;;;18.40;12.15;;;;;;;-4.80;100.00;104095.13;5116599;28;20475;-75
2023/02/07 05:29:58;;;;;;;17.98;11.98;;;;;;;-4.82;100.00;104088.13;5116022;27;20393;-75
2023/02/07 05:35:08;;;;;;;14.73;10.02;;;;;;;-4.82;100.00;104080.34;5116547;28;20047;-74
2023/02/07 05:37:33;;;;;;;15.52;9.90;;;;;;;-4.84;100.00;104085.50;5116447;28;20035;-75
2023/02/07 05:39:59;;;;;;;15.07;9.15;;;;;;;-4.85;100.00;104088.97;5115826;28;20035;-75
2023/02/07 05:42:24;;;;;;;12.82;9.55;;;;;;;-4.86;100.00;104086.31;5114118;28;20588;-75
2023/02/07 05:44:50;;;;;;;11.80;8.77;;;;;;;-4.88;100.00;104091.47;5116064;28;20031;-75
2023/02/07 05:47:15;;;;;;;13.73;9.80;;;;;;;-4.88;100.00;104096.66;5114206;28;20059;-75
2023/02/07 05:49:41;;;;;;;17.00;9.95;;;;;;;-4.87;100.00;104097.53;5115900;28;20034;-75
2023/02/07 05:52:07;;;;;;;17.67;9.48;;;;;;;-4.83;100.00;104101.97;5116009;28;20113;-75
2023/02/07 05:54:33;;;;;;;12.80;8.77;;;;;;;-4.83;100.00;104087.25;5115653;28;20144;-75
2023/02/07 05:56:58;;;;;;;13.77;8.80;;;;;;;-4.79;100.00;104098.63;5115460;28;20039;-75
2023/02/07 05:59:24;;;;;;;17.42;8.40;;;;;;;-4.80;100.00;104096.88;5114295;28;20038;-75
2023/02/07 06:01:49;;;;;;;20.05;9.80;;;;;;;-4.82;100.00;104085.53;5114240;28;20046;-75
2023/02/07 06:04:15;;;;;;;16.88;9.00;;;;;;;-4.81;100.00;104087.31;5115754;28;20047;-75
2023/02/07 06:06:40;;;;;;;14.75;8.50;;;;;;;-4.79;100.00;104091.72;5114705;28;20186;-76
2023/02/07 06:09:06;;;;;;;17.75;9.27;;;;;;;-4.80;100.00;104084.75;5115633;28;20464;-75
2023/02/07 06:11:31;;;;;;;15.35;7.95;;;;;;;-4.83;100.00;104095.06;5115116;28;20032;-75
2023/02/07 06:13:57;;;;;;;21.23;9.15;;;;;;;-4.86;100.00;104096.72;5115043;28;20435;-77
2023/02/07 06:16:22;;;;;;;12.82;8.50;;;;;;;-4.88;100.00;104101.88;5113861;28;20063;-77
2023/02/07 06:18:48;;;;;;;15.07;8.43;;;;;;;-4.91;100.00;104100.88;5115668;28;20030;-75
2023/02/07 06:21:13;;;;;;;16.55;8.60;;;;;;;-4.95;100.00;104105.13;5114659;28;20053;-76
2023/02/07 06:23:39;;;;;;;15.38;8.65;;;;;;;-4.97;100.00;104118.09;5114924;28;20442;-75
2023/02/07 06:26:04;;;;;;;18.60;9.20;;;;;;;-4.97;100.00;104119.78;5113745;28;20091;-75
2023/02/07 06:28:29;;;;;;;16.83;8.65;;;;;;;-4.98;100.00;104120.63;5115067;28;20035;-75
2023/02/07 06:30:55;;;;;;;15.30;9.20;;;;;;;-4.98;100.00;104112.84;5114630;28;20024;-75
2023/02/07 06:33:20;;;;;;;18.50;9.32;;;;;;;-4.97;100.00;104118.09;5114257;28;20028;-74
2023/02/07 06:35:46;;;;;;;17.90;9.70;;;;;;;-4.97;100.00;104122.38;5112841;28;20035;-75
2023/02/07 06:38:16;;;;;;;20.23;9.73;;;;;;;-4.97;100.00;104124.97;5114490;28;20042;-73
2023/02/07 06:40:42;;;;;;;17.52;8.77;;;;;;;-4.98;100.00;104120.63;5114446;28;20030;-74
2023/02/07 06:43:09;;;;;;;17.92;8.85;;;;;;;-4.97;100.00;104122.38;5114521;28;20043;-74
2023/02/07 06:45:34;;;;;;;16.33;9.15;;;;;;;-4.94;100.00;104122.50;5114281;28;20121;-74
2023/02/07 06:48:00;;;;;;;21.40;10.32;;;;;;;-4.88;100.00;104120.06;5114407;28;20456;-75
2023/02/07 06:50:25;;;;;;;18.02;9.15;;;;;;;-4.79;100.00;104120.28;5113029;28;20065;-75
2023/02/07 06:52:51;;;;;;;14.93;8.93;;;;;;;-4.72;100.00;104121.31;5114114;28;20032;-74
2023/02/07 06:55:16;;;;;;;17.98;10.18;;;;;;;-4.62;100.00;104119.84;5114068;28;20432;-76
2023/02/07 06:57:41;;;;;;;17.50;9.63;;;;;;;-4.52;100.00;104126.13;5113270;28;20118;-76
2023/02/07 07:00:08;;;;;;;17.52;10.05;;;;;;;-4.44;100.00;104125.50;5112854;28;20034;-77
2023/02/07 07:02:33;;;;;;;21.63;9.75;;;;;;;-4.31;100.00;104126.69;5114165;28;20048;-73
2023/02/07 07:04:58;;;;;;;15.57;9.77;;;;;;;-4.21;100.00;104129.50;5112356;28;20088;-73
2023/02/07 07:07:24;;;;;;;18.35;10.43;;;;;;;-4.09;100.00;104135.00;5113501;28;20035;-73
2023/02/07 07:09:49;;;;;;;17.52;10.60;;;;;;;-3.97;100.00;104137.91;5112646;28;20046;-71
2023/02/07 07:12:14;;;;;;;24.40;11.68;;;;;;;-3.86;100.00;104138.16;5113570;28;20475;-73
2023/02/07 07:14:40;;;;;;;27.63;14.00;;;;;;;-3.71;100.00;104142.81;5112569;28;20380;-73
2023/02/07 07:17:05;;;;;;;30.08;13.38;;;;;;;-3.58;100.00;104144.84;5113785;28;20035;-73
2023/02/07 07:19:30;;;;;;;23.30;12.75;;;;;;;-3.46;100.00;104145.94;5112107;28;20031;-72
2023/02/07 07:21:57;;;;;;;27.65;15.15;;;;;;;-3.37;100.00;104140.94;5113437;28;20032;-72
2023/02/07 07:24:23;;;;;;;30.20;14.77;;;;;;;-3.26;100.00;104146.38;5113814;28;20371;-72
2023/02/07 07:26:48;;;;;;;25.77;13.25;;;;;;;-3.15;100.00;104154.38;5113586;28;20039;-72
2023/02/07 07:29:14;;;;;;;33.03;17.20;;;;;;;-3.06;100.00;104154.56;5113364;28;20082;-73
2023/02/07 07:31:39;;;;;;;41.47;17.50;;;;;;;-2.97;100.00;104148.66;5113454;28;20027;-72
2023/02/07 07:34:04;;;;;;;43.90;17.80;;;;;;;-2.88;100.00;104156.66;5113770;28;20027;-72
2023/02/07 07:36:30;;;;;;;38.25;16.45;;;;;;;-2.80;100.00;104154.22;5112950;28;20375;-72
2023/02/07 07:38:55;;;;;;;44.65;18.63;;;;;;;-2.74;100.00;104159.53;5113363;28;20030;-72
2023/02/07 07:41:20;;;;;;;57.28;20.83;;;;;;;-2.66;100.00;104157.94;5113269;28;20111;-72
2023/02/07 07:43:46;;;;;;;51.83;19.15;;;;;;;-2.59;100.00;104159.81;5113183;28;20039;-73
2023/02/07 07:46:11;;;;;;;54.28;21.75;;;;;;;-2.53;100.00;104170.34;5112006;28;20114;-72
2023/02/07 07:48:37;;;;;;;57.85;21.65;;;;;;;-2.44;100.00;104168.75;5113118;28;20388;-73
2023/02/07 07:51:02;;;;;;;72.72;25.15;;;;;;;-2.38;100.00;104172.34;5113079;28;20055;-73
2023/02/07 07:53:28;;;;;;;59.92;23.50;;;;;;;-2.31;100.00;104171.59;5112094;28;20118;-73
2023/02/07 07:55:55;;;;;;;61.83;25.23;;;;;;;-2.24;100.00;104172.59;5111408;28;20495;-73
2023/02/07 07:58:22;;;;;;;75.00;26.55;;;;;;;-2.16;100.00;104172.72;5113528;28;20046;-72
2023/02/07 08:00:48;;;;;;;82.72;26.38;;;;;;;-2.09;100.00;104171.97;5111271;28;20061;-72
2023/02/07 08:03:14;;;;;;;137.68;26.95;;;;;;;-2.01;100.00;104169.47;5112808;28;20059;-72
2023/02/07 08:05:40;;;;;;;178.73;28.10;;;;;;;-1.97;100.00;104171.25;5113282;28;20115;-72
2023/02/07 08:08:05;;;;;;;68.80;25.67;;;;;;;-1.96;100.00;104178.22;5111237;28;20062;-71
2023/02/07 08:10:31;;;;;;;82.18;25.98;;;;;;;-1.92;100.00;104174.81;5113634;28;20059;-72
2023/02/07 08:12:56;;;;;;;68.65;25.02;;;;;;;-1.88;100.00;104168.81;5112993;28;20047;-74
2023/02/07 08:15:23;;;;;;;158.38;27.35;;;;;;;-1.84;100.00;104174.94;5112589;28;20030;-74
2023/02/07 08:17:49;;;;;;;132.50;25.08;;;;;;;-1.83;100.00;104177.56;5111359;28;20388;-73
2023/02/07 08:20:14;;;;;;;107.25;24.35;;;;;;;-1.82;100.00;104181.03;5112647;28;20035;-73
2023/02/07 08:22:40;;;;;;;79.43;25.05;;;;;;;-1.79;100.00;104168.94;5112583;28;20023;-73
2023/02/07 08:25:06;;;;;;;86.55;24.80;;;;;;;-1.72;100.00;104177.72;5112784;28;20032;-73
2023/02/07 08:27:31;;;;;;;164.18;27.30;;;;;;;-1.67;100.00;104175.16;5112754;28;20096;-73
2023/02/07 08:29:57;;;;;;;255.32;26.30;;;;;;;-1.67;100.00;104183.00;5111534;28;20035;-74
2023/02/07 08:32:22;;;;;;;247.32;26.63;;;;;;;-1.66;100.00;104177.81;5112792;28;20035;-74
2023/02/07 08:34:48;;;;;;;75.97;24.10;;;;;;;-1.64;100.00;104175.25;5112726;28;20059;-73
2023/02/07 08:37:13;;;;;;;91.22;24.33;;;;;;;-1.57;100.00;104174.44;5112457;28;20123;-73
2023/02/07 08:39:39;;;;;;;116.70;26.00;;;;;;;-1.52;100.00;104172.78;5112165;28;20124;-72
2023/02/07 08:42:07;;;;;;;129.73;24.02;;;;;;;-1.46;100.00;104172.00;5111883;28;20035;-71
2023/02/07 08:44:32;;;;;;;171.27;24.92;;;;;;;-1.46;100.00;104172.00;5112635;28;20081;-71
2023/02/07 08:46:58;;;;;;;78.38;24.45;;;;;;;-1.43;100.00;104182.50;5112673;28;20032;-71
2023/02/07 08:49:23;;;;;;;162.18;23.67;;;;;;;-1.38;100.00;104182.56;5115862;28;20067;-72
2023/02/07 08:51:49;;;;;;;258.83;26.20;;;;;;;-1.34;100.00;104174.78;5116682;28;20035;-72
2023/02/07 08:54:14;;;;;;;390.00;29.70;;;;;;;-1.39;100.00;104176.44;5114945;28;20034;-73
2023/02/07 08:56:39;;;;;;;297.92;25.58;;;;;;;-1.46;100.00;104180.72;5115367;28;20157;-71
2023/02/07 08:59:05;;;;;;;166.82;24.45;;;;;;;-1.45;100.00;104176.34;5116482;28;20043;-71
2023/02/07 09:01:30;;;;;;;247.77;24.50;;;;;;;-1.45;100.00;104171.13;5116134;28;20117;-71
2023/02/07 09:03:56;;;;;;;332.75;27.42;;;;;;;-1.45;100.00;104179.88;5116388;28;20120;-71
2023/02/07 09:06:22;;;;;;;215.65;25.77;;;;;;;-1.33;100.00;104189.59;5116482;28;20074;-72
2023/02/07 09:08:48;;;;;;;244.02;25.08;;;;;;;-1.30;100.00;104192.25;5116096;28;20028;-72
2023/02/07 09:11:14;;;;;;;168.98;24.60;;;;;;;-1.35;100.00;104179.97;5115682;28;20144;-72
2023/02/07 09:13:40;;;;;;;92.90;24.25;;;;;;;-1.26;100.00;104186.19;5116286;27;20024;-71
2023/02/07 09:16:05;;;;;;;128.43;24.33;;;;;;;-1.14;100.00;104184.59;5115947;28;20082;-72
2023/02/07 09:18:31;;;;;;;151.25;26.13;;;;;;;-1.08;100.00;104177.69;5115897;28;20077;-73
2023/02/07 09:20:56;;;;;;;274.40;27.55;;;;;;;-1.00;100.00;104179.53;5116020;28;20118;-74
2023/02/07 09:23:22;;;;;;;148.20;24.48;;;;;;;-0.97;100.00;104172.63;5115490;27;20113;-73
2023/02/07 09:25:51;;;;;;;127.88;25.38;;;;;;;-0.88;100.00;104184.91;5114248;28;20035;-73
2023/02/07 09:28:19;;;;;;;106.13;24.23;;;;;;;-0.78;100.00;104172.78;5115914;27;20518;-72
2023/02/07 09:30:46;;;;;;;241.00;25.45;;;;;;;-0.73;100.00;104181.59;5115282;28;20051;-73
2023/02/07 09:33:13;;;;;;;189.82;24.60;;;;;;;-0.84;100.00;104180.59;5115381;28;20433;-73
2023/02/07 09:35:40;;;;;;;60.20;22.15;;;;;;;-0.90;100.00;104184.00;5115657;28;20382;-72
2023/02/07 09:38:08;;;;;;;110.60;24.05;;;;;;;-0.82;100.00;104177.13;5115369;28;20028;-74
2023/02/07 09:40:34;;;;;;;113.72;25.70;;;;;;;-0.77;100.00;104178.03;5115333;28;20076;-72
2023/02/07 09:43:24;;;;;;;95.60;24.90;;;;;;;-0.73;100.00;104174.59;5114196;28;20031;-72
2023/02/07 09:45:55;;;;;;;86.47;24.83;;;;;;;-0.59;100.00;104174.75;5115538;28;20428;-72
2023/02/07 09:48:26;;;;;;;96.75;24.95;;;;;;;-0.52;100.00;104174.78;5115363;28;20039;-74
2023/02/07 09:50:56;;;;;;;73.05;25.42;;;;;;;-0.38;100.00;104170.56;5115352;28;20031;-74
2023/02/07 09:53:32;;;;;;;57.90;21.98;;;;;;;-0.32;100.00;104167.13;5115154;28;20110;-71
2023/02/07 09:56:00;;;;;;;67.93;21.25;;;;;;;-0.23;100.00;104165.47;5115783;28;20031;-73
2023/02/07 09:58:28;;;;;;;73.97;22.92;;;;;;;-0.02;100.00;104169.97;5115548;28;20023;-72
2023/02/07 10:01:07;;;;;;;48.08;22.23;;;;;;;0.05;100.00;104167.44;5117071;28;20027;-75
2023/02/07 10:03:41;;;;;;;88.72;21.33;;;;;;;0.14;100.00;104170.09;5117158;28;20473;-73
2023/02/07 10:06:17;;;;;;;64.82;21.48;;;;;;;0.02;100.00;104170.03;5116845;28;20067;-75
2023/02/07 10:08:42;;;;;;;52.78;20.20;;;;;;;0.32;100.00;104167.59;5116044;28;20119;-73
2023/02/07 10:11:33;;;;;;;63.78;21.38;;;;;;;0.58;100.00;104173.84;5115959;28;20034;-78
2023/02/07 10:14:25;;;;;;;55.35;21.27;;;;;;;0.55;100.00;104172.06;5115204;28;20077;-78
2023/02/07 10:17:00;;;;;;;50.08;19.73;;;;;;;0.47;100.00;104171.19;5115256;28;20073;-76
2023/02/07 10:19:42;;;;;;;44.28;21.60;;;;;;;0.93;100.00;104162.66;5114930;28;20023;-76
2023/02/07 10:22:18;;;;;;;47.08;22.05;;;;;;;1.19;100.00;104171.44;5114796;28;20039;-73
2023/02/07 10:25:05;;;;;;;40.28;21.23;;;;;;;1.63;100.00;104180.25;5115151;28;20023;-75
2023/02/07 10:28:12;;;;;;;41.10;20.52;;;;;;;1.81;100.00;104181.13;5114547;28;20031;-74
2023/02/07 10:30:39;;;;;;;41.95;20.30;;;;;;;2.22;100.00;104188.97;5071536;28;20115;-73
2023/02/07 10:33:33;;;;;;;37.45;18.65;;;;;;;3.31;100.00;104181.53;5071419;28;20035;-72
2023/02/07 10:36:02;;;;;;;33.90;18.25;;;;;;;3.99;100.00;104187.13;5096376;28;20407;-73
2023/02/07 10:38:42;;;;;;;38.65;19.08;;;;;;;3.44;100.00;104185.81;5114023;28;20494;-72
2023/02/07 10:41:15;;;;;;;57.92;19.08;;;;;;;2.75;100.00;104186.22;5114491;28;20027;-73
2023/02/07 10:43:44;;;;;;;37.35;20.35;;;;;;;2.82;100.00;104178.28;5114541;28;20457;-74
2023/02/07 10:46:14;;;;;;;39.08;19.15;;;;;;;3.34;100.00;104192.91;5114604;28;20476;-73
2023/02/07 10:48:40;;;;;;;34.78;18.77;;;;;;;3.34;100.00;104192.91;5115416;28;20028;-73
2023/02/07 10:51:18;;;;;;;37.63;18.58;;;;;;;4.21;100.00;104186.91;5117158;28;20027;-72
2023/02/07 10:53:49;;;;;;;35.97;18.30;;;;;;;4.26;100.00;104190.41;5114195;28;20032;-72
2023/02/07 10:56:26;;;;;;;35.40;17.60;;;;;;;3.53;100.00;104195.41;5114126;28;20023;-73
2023/02/07 10:58:53;;;;;;;33.22;17.85;;;;;;;3.86;100.00;104199.53;5113997;28;20035;-74
2023/02/07 11:01:25;;;;;;;31.83;17.15;;;;;;;4.54;100.00;104190.09;5113860;28;20217;-73
2023/02/07 11:03:51;;;;;;;30.67;16.27;;;;;;;4.40;100.00;104191.13;5114317;28;20050;-73
2023/02/07 11:06:33;;;;;;;29.88;17.05;;;;;;;4.94;100.00;104185.19;5114069;28;20031;-73
2023/02/07 11:09:22;;;;;;;28.27;16.88;;;;;;;5.53;100.00;104186.13;5113506;28;20062;-73
2023/02/07 11:11:52;;;;;;;27.75;15.75;;;;;;;5.89;100.00;104189.91;5113129;28;20343;-73
2023/02/07 11:14:25;;;;;;;25.88;15.40;;;;;;;5.90;100.00;104172.31;5113441;28;20031;-74
2023/02/07 11:16:54;;;;;;;28.40;15.93;;;;;;;6.08;100.00;104169.34;5114330;28;20027;-74